sensor_id;sensor_type;location;lat;lon;timestamp;temperature;humidity
16198;DHT22;8206;51.440;6.914;2024-01-16T00:02:16;0.90;99.90
16198;DHT22;8206;51.440;6.914;2024-01-16T00:04:43;0.90;99.90
16198;DHT22;8206;51.440;6.914;2024-01-16T00:07:10;0.90;99.90
16198;DHT22;8206;51.440;6.914;2024-01-16T00:09:36;0.90;99.90
16198;DHT22;8206;51.440;6.914;2024-01-16T00:12:04;0.90;99.90
16198;DHT22;8206;51.440;6.914;2024-01-16T00:14:30;0.90;99.90
16198;DHT22;8206;51.440;6.914;2024-01-16T00:17:00;0.90;99.90
16198;DHT22;8206;51.440;6.914;2024-01-16T00:19:28;1.00;99.90
16198;DHT22;8206;51.440;6.914;2024-01-16T00:21:55;1.00;99.90
16198;DHT22;8206;51.440;6.914;2024-01-16T00:24:22;1.00;99.90
16198;DHT22;8206;51.440;6.914;2024-01-16T00:26:48;1.00;99.90
16198;DHT22;8206;51.440;6.914;2024-01-16T00:29:16;1.00;99.90
16198;DHT22;8206;51.440;6.914;2024-01-16T00:31:43;1.00;99.90
16198;DHT22;8206;51.440;6.914;2024-01-16T00:34:09;1.00;99.90
16198;DHT22;8206;51.440;6.914;2024-01-16T00:36:37;1.00;99.90
16198;DHT22;8206;51.440;6.914;2024-01-16T00:39:04;0.90;99.90
16198;DHT22;8206;51.440;6.914;2024-01-16T00:41:32;0.90;99.90
16198;DHT22;8206;51.440;6.914;2024-01-16T00:43:59;0.80;99.90
16198;DHT22;8206;51.440;6.914;2024-01-16T00:46:26;0.80;99.90
16198;DHT22;8206;51.440;6.914;2024-01-16T00:48:52;0.70;99.90
16198;DHT22;8206;51.440;6.914;2024-01-16T00:51:19;0.80;99.90
16198;DHT22;8206;51.440;6.914;2024-01-16T00:53:47;0.80;99.90
16198;DHT22;8206;51.440;6.914;2024-01-16T00:56:14;0.80;99.90
16198;DHT22;8206;51.440;6.914;2024-01-16T00:58:40;0.80;99.90
16198;DHT22;8206;51.440;6.914;2024-01-16T01:01:07;0.80;99.90
16198;DHT22;8206;51.440;6.914;2024-01-16T01:03:34;0.80;99.90
16198;DHT22;8206;51.440;6.914;2024-01-16T01:06:01;0.80;99.90
16198;DHT22;8206;51.440;6.914;2024-01-16T01:08:28;0.80;99.90
16198;DHT22;8206;51.440;6.914;2024-01-16T01:10:56;0.90;99.90
16198;DHT22;8206;51.440;6.914;2024-01-16T01:13:22;0.80;99.90
16198;DHT22;8206;51.440;6.914;2024-01-16T01:15:50;0.80;99.90
16198;DHT22;8206;51.440;6.914;2024-01-16T01:18:17;0.80;99.90
16198;DHT22;8206;51.440;6.914;2024-01-16T01:20:43;0.80;99.90
16198;DHT22;8206;51.440;6.914;2024-01-16T01:23:09;0.80;99.90
16198;DHT22;8206;51.440;6.914;2024-01-16T01:25:36;0.90;99.90
16198;DHT22;8206;51.440;6.914;2024-01-16T01:28:05;0.90;99.90
16198;DHT22;8206;51.440;6.914;2024-01-16T01:30:32;0.80;99.90
16198;DHT22;8206;51.440;6.914;2024-01-16T01:32:58;0.80;99.90
16198;DHT22;8206;51.440;6.914;2024-01-16T01:35:25;0.80;99.90
16198;DHT22;8206;51.440;6.914;2024-01-16T01:37:52;0.80;99.90
16198;DHT22;8206;51.440;6.914;2024-01-16T01:40:19;0.80;99.90
16198;DHT22;8206;51.440;6.914;2024-01-16T01:42:46;0.90;99.90
16198;DHT22;8206;51.440;6.914;2024-01-16T01:45:14;0.90;99.90
16198;DHT22;8206;51.440;6.914;2024-01-16T01:47:41;1.00;99.90
16198;DHT22;8206;51.440;6.914;2024-01-16T01:50:09;0.90;99.90
16198;DHT22;8206;51.440;6.914;2024-01-16T01:52:38;0.90;99.90
16198;DHT22;8206;51.440;6.914;2024-01-16T01:55:07;0.90;99.90
16198;DHT22;8206;51.440;6.914;2024-01-16T01:57:35;0.90;99.90
16198;DHT22;8206;51.440;6.914;2024-01-16T02:00:03;0.90;99.90
16198;DHT22;8206;51.440;6.914;2024-01-16T02:02:32;0.90;99.90
16198;DHT22;8206;51.440;6.914;2024-01-16T02:04:59;0.90;99.90
16198;DHT22;8206;51.440;6.914;2024-01-16T02:07:26;0.90;99.90
16198;DHT22;8206;51.440;6.914;2024-01-16T02:09:53;0.80;99.90
16198;DHT22;8206;51.440;6.914;2024-01-16T02:12:20;0.80;99.90
16198;DHT22;8206;51.440;6.914;2024-01-16T02:14:47;0.80;99.90
16198;DHT22;8206;51.440;6.914;2024-01-16T02:17:13;0.90;99.90
16198;DHT22;8206;51.440;6.914;2024-01-16T02:19:41;0.80;99.90
16198;DHT22;8206;51.440;6.914;2024-01-16T02:22:09;0.90;99.90
16198;DHT22;8206;51.440;6.914;2024-01-16T02:24:39;0.90;99.90
16198;DHT22;8206;51.440;6.914;2024-01-16T02:27:05;0.90;99.90
16198;DHT22;8206;51.440;6.914;2024-01-16T02:29:32;0.90;99.90
16198;DHT22;8206;51.440;6.914;2024-01-16T02:32:00;1.00;99.90
16198;DHT22;8206;51.440;6.914;2024-01-16T02:34:28;1.00;99.90
16198;DHT22;8206;51.440;6.914;2024-01-16T02:36:55;0.90;99.90
16198;DHT22;8206;51.440;6.914;2024-01-16T02:39:22;0.90;99.90
16198;DHT22;8206;51.440;6.914;2024-01-16T02:41:50;1.00;99.90
16198;DHT22;8206;51.440;6.914;2024-01-16T02:44:16;1.00;99.90
16198;DHT22;8206;51.440;6.914;2024-01-16T02:46:43;1.00;99.90
16198;DHT22;8206;51.440;6.914;2024-01-16T02:49:10;1.00;99.90
16198;DHT22;8206;51.440;6.914;2024-01-16T02:51:36;1.00;99.90
16198;DHT22;8206;51.440;6.914;2024-01-16T02:54:06;0.90;99.90
16198;DHT22;8206;51.440;6.914;2024-01-16T02:56:33;1.00;99.90
16198;DHT22;8206;51.440;6.914;2024-01-16T02:59:01;1.00;99.90
16198;DHT22;8206;51.440;6.914;2024-01-16T03:01:27;1.00;99.90
16198;DHT22;8206;51.440;6.914;2024-01-16T03:03:54;1.00;99.90
16198;DHT22;8206;51.440;6.914;2024-01-16T03:06:24;1.00;99.90
16198;DHT22;8206;51.440;6.914;2024-01-16T03:08:51;1.00;99.90
16198;DHT22;8206;51.440;6.914;2024-01-16T03:11:17;1.00;99.90
16198;DHT22;8206;51.440;6.914;2024-01-16T03:13:44;1.00;99.90
16198;DHT22;8206;51.440;6.914;2024-01-16T03:16:12;1.00;99.90
16198;DHT22;8206;51.440;6.914;2024-01-16T03:18:39;1.00;99.90
16198;DHT22;8206;51.440;6.914;2024-01-16T03:21:06;1.00;99.90
16198;DHT22;8206;51.440;6.914;2024-01-16T03:23:34;1.00;99.90
16198;DHT22;8206;51.440;6.914;2024-01-16T03:26:00;1.00;99.90
16198;DHT22;8206;51.440;6.914;2024-01-16T03:28:29;1.00;99.90
16198;DHT22;8206;51.440;6.914;2024-01-16T03:30:55;0.90;99.90
16198;DHT22;8206;51.440;6.914;2024-01-16T03:33:24;0.90;99.90
16198;DHT22;8206;51.440;6.914;2024-01-16T03:35:50;0.90;99.90
16198;DHT22;8206;51.440;6.914;2024-01-16T03:38:18;1.00;99.90
16198;DHT22;8206;51.440;6.914;2024-01-16T03:40:44;1.00;99.90
16198;DHT22;8206;51.440;6.914;2024-01-16T03:43:11;1.00;99.90
16198;DHT22;8206;51.440;6.914;2024-01-16T03:45:38;1.00;99.90
16198;DHT22;8206;51.440;6.914;2024-01-16T03:48:05;0.90;99.90
16198;DHT22;8206;51.440;6.914;2024-01-16T03:50:33;0.90;99.90
16198;DHT22;8206;51.440;6.914;2024-01-16T03:53:01;1.00;99.90
16198;DHT22;8206;51.440;6.914;2024-01-16T03:55:29;1.00;99.90
16198;DHT22;8206;51.440;6.914;2024-01-16T03:57:56;0.90;99.90
16198;DHT22;8206;51.440;6.914;2024-01-16T04:00:23;1.00;99.90
16198;DHT22;8206;51.440;6.914;2024-01-16T04:02:50;1.00;99.90
16198;DHT22;8206;51.440;6.914;2024-01-16T04:05:16;1.00;99.90
16198;DHT22;8206;51.440;6.914;2024-01-16T04:07:44;1.00;99.90
16198;DHT22;8206;51.440;6.914;2024-01-16T04:10:11;1.00;99.90
16198;DHT22;8206;51.440;6.914;2024-01-16T04:12:38;1.00;99.90
16198;DHT22;8206;51.440;6.914;2024-01-16T04:15:05;1.00;99.90
16198;DHT22;8206;51.440;6.914;2024-01-16T04:17:32;0.90;99.90
16198;DHT22;8206;51.440;6.914;2024-01-16T04:19:58;1.00;99.90
16198;DHT22;8206;51.440;6.914;2024-01-16T04:22:25;0.90;99.90
16198;DHT22;8206;51.440;6.914;2024-01-16T04:24:53;0.90;99.90
16198;DHT22;8206;51.440;6.914;2024-01-16T04:27:20;0.90;99.90
16198;DHT22;8206;51.440;6.914;2024-01-16T04:29:47;0.90;99.90
16198;DHT22;8206;51.440;6.914;2024-01-16T04:32:13;0.90;99.90
16198;DHT22;8206;51.440;6.914;2024-01-16T04:34:40;1.00;99.90
16198;DHT22;8206;51.440;6.914;2024-01-16T04:37:07;1.00;99.90
16198;DHT22;8206;51.440;6.914;2024-01-16T04:39:33;1.00;99.90
16198;DHT22;8206;51.440;6.914;2024-01-16T04:42:01;1.00;99.90
16198;DHT22;8206;51.440;6.914;2024-01-16T04:44:29;1.00;99.90
16198;DHT22;8206;51.440;6.914;2024-01-16T04:46:55;1.00;99.90
16198;DHT22;8206;51.440;6.914;2024-01-16T04:49:22;0.90;99.90
16198;DHT22;8206;51.440;6.914;2024-01-16T04:51:49;0.90;99.90
16198;DHT22;8206;51.440;6.914;2024-01-16T04:54:16;1.00;99.90
16198;DHT22;8206;51.440;6.914;2024-01-16T04:56:42;1.00;99.90
16198;DHT22;8206;51.440;6.914;2024-01-16T04:59:10;1.00;99.90
16198;DHT22;8206;51.440;6.914;2024-01-16T05:01:37;1.00;99.90
16198;DHT22;8206;51.440;6.914;2024-01-16T05:04:04;1.00;99.90
16198;DHT22;8206;51.440;6.914;2024-01-16T05:06:33;1.00;99.90
16198;DHT22;8206;51.440;6.914;2024-01-16T05:09:00;1.00;99.90
16198;DHT22;8206;51.440;6.914;2024-01-16T05:11:26;1.00;99.90
16198;DHT22;8206;51.440;6.914;2024-01-16T05:13:53;1.00;99.90
16198;DHT22;8206;51.440;6.914;2024-01-16T05:16:24;1.00;99.90
16198;DHT22;8206;51.440;6.914;2024-01-16T05:18:51;0.90;99.90
16198;DHT22;8206;51.440;6.914;2024-01-16T05:21:18;0.90;99.90
16198;DHT22;8206;51.440;6.914;2024-01-16T05:23:44;1.00;99.90
16198;DHT22;8206;51.440;6.914;2024-01-16T05:26:12;0.90;99.90
16198;DHT22;8206;51.440;6.914;2024-01-16T05:28:39;0.90;99.90
16198;DHT22;8206;51.440;6.914;2024-01-16T05:31:05;0.90;99.90
16198;DHT22;8206;51.440;6.914;2024-01-16T05:33:34;0.90;99.90
16198;DHT22;8206;51.440;6.914;2024-01-16T05:36:00;0.90;99.90
16198;DHT22;8206;51.440;6.914;2024-01-16T05:38:27;0.80;99.90
16198;DHT22;8206;51.440;6.914;2024-01-16T05:40:54;0.80;99.90
16198;DHT22;8206;51.440;6.914;2024-01-16T05:43:21;0.80;99.90
16198;DHT22;8206;51.440;6.914;2024-01-16T05:45:47;0.80;99.90
16198;DHT22;8206;51.440;6.914;2024-01-16T05:48:15;0.70;99.90
16198;DHT22;8206;51.440;6.914;2024-01-16T05:50:43;0.70;99.90
16198;DHT22;8206;51.440;6.914;2024-01-16T05:53:10;0.60;99.90
16198;DHT22;8206;51.440;6.914;2024-01-16T05:55:37;0.60;99.90
16198;DHT22;8206;51.440;6.914;2024-01-16T05:58:03;0.60;99.90
16198;DHT22;8206;51.440;6.914;2024-01-16T06:00:30;0.70;99.90
16198;DHT22;8206;51.440;6.914;2024-01-16T06:02:59;0.70;99.90
16198;DHT22;8206;51.440;6.914;2024-01-16T06:05:25;0.80;99.90
16198;DHT22;8206;51.440;6.914;2024-01-16T06:07:53;0.80;99.90
16198;DHT22;8206;51.440;6.914;2024-01-16T06:10:19;0.80;99.90
16198;DHT22;8206;51.440;6.914;2024-01-16T06:12:46;0.90;99.90
16198;DHT22;8206;51.440;6.914;2024-01-16T06:15:12;0.90;99.90
16198;DHT22;8206;51.440;6.914;2024-01-16T06:17:39;0.80;99.90
16198;DHT22;8206;51.440;6.914;2024-01-16T06:20:07;0.80;99.90
16198;DHT22;8206;51.440;6.914;2024-01-16T06:22:33;0.80;99.90
16198;DHT22;8206;51.440;6.914;2024-01-16T06:25:01;0.80;99.90
16198;DHT22;8206;51.440;6.914;2024-01-16T06:27:28;0.80;99.90
16198;DHT22;8206;51.440;6.914;2024-01-16T06:29:55;0.80;99.90
16198;DHT22;8206;51.440;6.914;2024-01-16T06:32:21;0.90;99.90
16198;DHT22;8206;51.440;6.914;2024-01-16T06:34:48;0.90;99.90
16198;DHT22;8206;51.440;6.914;2024-01-16T06:37:15;1.00;99.90
16198;DHT22;8206;51.440;6.914;2024-01-16T06:39:42;0.90;99.90
16198;DHT22;8206;51.440;6.914;2024-01-16T06:42:10;0.80;99.90
16198;DHT22;8206;51.440;6.914;2024-01-16T06:44:37;0.80;99.90
16198;DHT22;8206;51.440;6.914;2024-01-16T06:47:04;0.80;99.90
16198;DHT22;8206;51.440;6.914;2024-01-16T06:49:31;0.80;99.90
16198;DHT22;8206;51.440;6.914;2024-01-16T06:51:57;0.80;99.90
16198;DHT22;8206;51.440;6.914;2024-01-16T06:54:24;0.70;99.90
16198;DHT22;8206;51.440;6.914;2024-01-16T06:56:51;0.70;99.90
16198;DHT22;8206;51.440;6.914;2024-01-16T06:59:19;0.70;99.90
16198;DHT22;8206;51.440;6.914;2024-01-16T07:01:47;0.70;99.90
16198;DHT22;8206;51.440;6.914;2024-01-16T07:04:13;0.70;99.90
16198;DHT22;8206;51.440;6.914;2024-01-16T07:06:40;0.60;99.90
16198;DHT22;8206;51.440;6.914;2024-01-16T07:09:07;0.60;99.90
16198;DHT22;8206;51.440;6.914;2024-01-16T07:11:36;0.50;99.90
16198;DHT22;8206;51.440;6.914;2024-01-16T07:14:03;0.50;99.90
16198;DHT22;8206;51.440;6.914;2024-01-16T07:16:31;0.50;99.90
16198;DHT22;8206;51.440;6.914;2024-01-16T07:18:58;0.50;99.90
16198;DHT22;8206;51.440;6.914;2024-01-16T07:21:25;0.40;99.90
16198;DHT22;8206;51.440;6.914;2024-01-16T07:23:51;0.40;99.90
16198;DHT22;8206;51.440;6.914;2024-01-16T07:26:18;0.40;99.90
16198;DHT22;8206;51.440;6.914;2024-01-16T07:28:45;0.30;99.90
16198;DHT22;8206;51.440;6.914;2024-01-16T07:31:13;0.30;99.90
16198;DHT22;8206;51.440;6.914;2024-01-16T07:33:43;0.30;99.90
16198;DHT22;8206;51.440;6.914;2024-01-16T07:36:10;0.20;99.90
16198;DHT22;8206;51.440;6.914;2024-01-16T07:38:37;0.20;99.90
16198;DHT22;8206;51.440;6.914;2024-01-16T07:41:04;0.30;99.90
16198;DHT22;8206;51.440;6.914;2024-01-16T07:43:31;0.20;99.90
16198;DHT22;8206;51.440;6.914;2024-01-16T07:45:58;0.20;99.90
16198;DHT22;8206;51.440;6.914;2024-01-16T07:48:25;0.20;99.90
16198;DHT22;8206;51.440;6.914;2024-01-16T07:50:53;0.30;99.90
16198;DHT22;8206;51.440;6.914;2024-01-16T07:53:20;0.40;99.90
16198;DHT22;8206;51.440;6.914;2024-01-16T07:55:46;0.30;99.90
16198;DHT22;8206;51.440;6.914;2024-01-16T07:58:13;0.40;99.90
16198;DHT22;8206;51.440;6.914;2024-01-16T08:00:41;0.40;99.90
16198;DHT22;8206;51.440;6.914;2024-01-16T08:03:08;0.30;99.90
16198;DHT22;8206;51.440;6.914;2024-01-16T08:05:36;0.30;99.90
16198;DHT22;8206;51.440;6.914;2024-01-16T08:08:05;0.30;99.90
16198;DHT22;8206;51.440;6.914;2024-01-16T08:10:31;0.20;99.90
16198;DHT22;8206;51.440;6.914;2024-01-16T08:12:58;0.20;99.90
16198;DHT22;8206;51.440;6.914;2024-01-16T08:15:25;0.30;99.90
16198;DHT22;8206;51.440;6.914;2024-01-16T08:17:52;0.30;99.90
16198;DHT22;8206;51.440;6.914;2024-01-16T08:20:18;0.40;99.90
16198;DHT22;8206;51.440;6.914;2024-01-16T08:22:45;0.40;99.90
16198;DHT22;8206;51.440;6.914;2024-01-16T08:25:13;0.40;99.90
16198;DHT22;8206;51.440;6.914;2024-01-16T08:27:40;0.50;99.90
16198;DHT22;8206;51.440;6.914;2024-01-16T08:30:08;0.60;99.90
16198;DHT22;8206;51.440;6.914;2024-01-16T08:32:35;0.60;99.90
16198;DHT22;8206;51.440;6.914;2024-01-16T08:35:02;0.70;99.90
16198;DHT22;8206;51.440;6.914;2024-01-16T08:37:31;0.70;99.90
16198;DHT22;8206;51.440;6.914;2024-01-16T08:39:58;0.70;99.90
16198;DHT22;8206;51.440;6.914;2024-01-16T08:42:26;0.60;99.90
16198;DHT22;8206;51.440;6.914;2024-01-16T08:44:52;0.60;99.90
16198;DHT22;8206;51.440;6.914;2024-01-16T08:47:19;0.60;99.90
16198;DHT22;8206;51.440;6.914;2024-01-16T08:49:46;0.70;99.90
16198;DHT22;8206;51.440;6.914;2024-01-16T08:52:13;0.70;99.90
16198;DHT22;8206;51.440;6.914;2024-01-16T08:54:41;0.70;99.90
16198;DHT22;8206;51.440;6.914;2024-01-16T08:57:07;0.70;99.90
16198;DHT22;8206;51.440;6.914;2024-01-16T08:59:37;0.80;99.90
16198;DHT22;8206;51.440;6.914;2024-01-16T09:02:04;0.90;99.90
16198;DHT22;8206;51.440;6.914;2024-01-16T09:04:31;0.90;99.90
16198;DHT22;8206;51.440;6.914;2024-01-16T09:06:58;0.90;99.90
16198;DHT22;8206;51.440;6.914;2024-01-16T09:09:25;0.90;99.90
16198;DHT22;8206;51.440;6.914;2024-01-16T09:11:51;0.90;99.90
16198;DHT22;8206;51.440;6.914;2024-01-16T09:14:18;0.80;99.90
16198;DHT22;8206;51.440;6.914;2024-01-16T09:16:47;0.90;99.90
16198;DHT22;8206;51.440;6.914;2024-01-16T09:19:13;0.90;99.90
16198;DHT22;8206;51.440;6.914;2024-01-16T09:21:40;0.90;99.90
16198;DHT22;8206;51.440;6.914;2024-01-16T09:24:07;0.90;99.90
16198;DHT22;8206;51.440;6.914;2024-01-16T09:26:34;1.00;99.90
16198;DHT22;8206;51.440;6.914;2024-01-16T09:29:01;1.00;99.90
16198;DHT22;8206;51.440;6.914;2024-01-16T09:31:28;1.00;99.90
16198;DHT22;8206;51.440;6.914;2024-01-16T09:33:56;1.00;99.90
16198;DHT22;8206;51.440;6.914;2024-01-16T09:36:23;1.10;99.90
16198;DHT22;8206;51.440;6.914;2024-01-16T09:38:49;1.10;99.90
16198;DHT22;8206;51.440;6.914;2024-01-16T09:41:16;1.30;99.90
16198;DHT22;8206;51.440;6.914;2024-01-16T09:43:43;1.30;99.90
16198;DHT22;8206;51.440;6.914;2024-01-16T09:46:11;1.30;99.90
16198;DHT22;8206;51.440;6.914;2024-01-16T09:48:37;1.40;99.90
16198;DHT22;8206;51.440;6.914;2024-01-16T09:51:06;1.30;99.90
16198;DHT22;8206;51.440;6.914;2024-01-16T09:53:33;1.40;99.90
16198;DHT22;8206;51.440;6.914;2024-01-16T09:56:02;1.40;99.90
16198;DHT22;8206;51.440;6.914;2024-01-16T09:58:34;1.40;99.90
16198;DHT22;8206;51.440;6.914;2024-01-16T10:01:01;1.50;99.90
16198;DHT22;8206;51.440;6.914;2024-01-16T10:03:30;1.60;99.90
16198;DHT22;8206;51.440;6.914;2024-01-16T10:05:57;1.70;99.90
16198;DHT22;8206;51.440;6.914;2024-01-16T10:08:27;1.70;99.90
16198;DHT22;8206;51.440;6.914;2024-01-16T10:10:53;1.70;99.90
16198;DHT22;8206;51.440;6.914;2024-01-16T10:13:20;1.70;99.90
16198;DHT22;8206;51.440;6.914;2024-01-16T10:15:49;1.70;99.90
16198;DHT22;8206;51.440;6.914;2024-01-16T10:18:22;1.70;99.90
16198;DHT22;8206;51.440;6.914;2024-01-16T10:20:50;1.80;99.90
16198;DHT22;8206;51.440;6.914;2024-01-16T10:23:22;2.00;99.90
16198;DHT22;8206;51.440;6.914;2024-01-16T10:28:42;2.00;99.90
16198;DHT22;8206;51.440;6.914;2024-01-16T10:31:10;2.20;99.90
16198;DHT22;8206;51.440;6.914;2024-01-16T10:33:37;2.20;99.90
16198;DHT22;8206;51.440;6.914;2024-01-16T10:36:09;2.10;99.90
16198;DHT22;8206;51.440;6.914;2024-01-16T10:38:36;2.10;99.90
16198;DHT22;8206;51.440;6.914;2024-01-16T10:41:05;2.10;99.90
16198;DHT22;8206;51.440;6.914;2024-01-16T10:43:32;2.10;99.90
16198;DHT22;8206;51.440;6.914;2024-01-16T10:46:09;2.20;99.90
16198;DHT22;8206;51.440;6.914;2024-01-16T10:48:37;2.10;99.90
16198;DHT22;8206;51.440;6.914;2024-01-16T10:51:05;2.20;99.90
16198;DHT22;8206;51.440;6.914;2024-01-16T10:53:34;2.20;99.90
16198;DHT22;8206;51.440;6.914;2024-01-16T10:56:01;2.10;99.90
16198;DHT22;8206;51.440;6.914;2024-01-16T10:58:30;2.10;99.90
16198;DHT22;8206;51.440;6.914;2024-01-16T11:01:01;1.90;99.90
16198;DHT22;8206;51.440;6.914;2024-01-16T11:03:35;1.90;99.90
16198;DHT22;8206;51.440;6.914;2024-01-16T11:06:05;1.70;99.90
16198;DHT22;8206;51.440;6.914;2024-01-16T11:08:34;1.70;99.90
16198;DHT22;8206;51.440;6.914;2024-01-16T11:11:02;1.80;99.90
16198;DHT22;8206;51.440;6.914;2024-01-16T11:13:31;1.80;99.90
16198;DHT22;8206;51.440;6.914;2024-01-16T11:15:59;1.90;99.90
16198;DHT22;8206;51.440;6.914;2024-01-16T11:18:27;1.90;99.90
16198;DHT22;8206;51.440;6.914;2024-01-16T11:20:58;2.00;99.90
16198;DHT22;8206;51.440;6.914;2024-01-16T11:23:25;2.20;99.90
16198;DHT22;8206;51.440;6.914;2024-01-16T11:25:52;2.50;99.90
16198;DHT22;8206;51.440;6.914;2024-01-16T11:28:18;2.50;99.90
16198;DHT22;8206;51.440;6.914;2024-01-16T11:30:45;2.60;99.90
16198;DHT22;8206;51.440;6.914;2024-01-16T11:33:43;2.70;99.90
16198;DHT22;8206;51.440;6.914;2024-01-16T11:36:50;2.70;99.90
16198;DHT22;8206;51.440;6.914;2024-01-16T11:39:20;2.70;99.90
16198;DHT22;8206;51.440;6.914;2024-01-16T11:41:51;2.80;99.90
16198;DHT22;8206;51.440;6.914;2024-01-16T11:44:38;2.60;99.90
16198;DHT22;8206;51.440;6.914;2024-01-16T11:47:05;2.20;99.90
16198;DHT22;8206;51.440;6.914;2024-01-16T11:49:32;1.90;99.90
16198;DHT22;8206;51.440;6.914;2024-01-16T11:52:00;1.70;99.90
16198;DHT22;8206;51.440;6.914;2024-01-16T11:54:27;1.50;99.90
16198;DHT22;8206;51.440;6.914;2024-01-16T11:57:36;1.50;99.90
16198;DHT22;8206;51.440;6.914;2024-01-16T12:00:18;1.50;99.90
16198;DHT22;8206;51.440;6.914;2024-01-16T12:02:52;1.50;99.90
16198;DHT22;8206;51.440;6.914;2024-01-16T12:05:19;1.40;99.90
16198;DHT22;8206;51.440;6.914;2024-01-16T12:07:49;1.50;99.90
16198;DHT22;8206;51.440;6.914;2024-01-16T12:10:16;1.50;99.90
16198;DHT22;8206;51.440;6.914;2024-01-16T12:12:43;1.50;99.90
16198;DHT22;8206;51.440;6.914;2024-01-16T12:15:14;1.40;99.90
16198;DHT22;8206;51.440;6.914;2024-01-16T12:17:56;1.50;99.90
16198;DHT22;8206;51.440;6.914;2024-01-16T12:20:24;1.40;99.90
16198;DHT22;8206;51.440;6.914;2024-01-16T12:22:57;1.50;99.90
16198;DHT22;8206;51.440;6.914;2024-01-16T12:25:24;1.50;99.90
16198;DHT22;8206;51.440;6.914;2024-01-16T12:27:57;1.50;99.90
16198;DHT22;8206;51.440;6.914;2024-01-16T12:30:25;1.50;99.90
16198;DHT22;8206;51.440;6.914;2024-01-16T12:33:02;1.70;99.90
16198;DHT22;8206;51.440;6.914;2024-01-16T12:35:29;1.90;99.90
16198;DHT22;8206;51.440;6.914;2024-01-16T12:38:02;2.10;99.90
16198;DHT22;8206;51.440;6.914;2024-01-16T12:40:31;2.20;99.90
16198;DHT22;8206;51.440;6.914;2024-01-16T12:42:58;2.40;99.90
16198;DHT22;8206;51.440;6.914;2024-01-16T12:45:24;2.40;99.90
16198;DHT22;8206;51.440;6.914;2024-01-16T12:47:52;2.50;99.90
16198;DHT22;8206;51.440;6.914;2024-01-16T12:50:20;2.60;99.90
16198;DHT22;8206;51.440;6.914;2024-01-16T12:52:48;2.70;99.90
16198;DHT22;8206;51.440;6.914;2024-01-16T12:55:16;2.70;99.90
16198;DHT22;8206;51.440;6.914;2024-01-16T12:57:43;2.70;99.90
16198;DHT22;8206;51.440;6.914;2024-01-16T13:00:23;2.70;99.90
16198;DHT22;8206;51.440;6.914;2024-01-16T13:02:51;2.70;99.90
16198;DHT22;8206;51.440;6.914;2024-01-16T13:05:18;2.70;99.90
16198;DHT22;8206;51.440;6.914;2024-01-16T13:07:45;2.80;99.90
16198;DHT22;8206;51.440;6.914;2024-01-16T13:10:13;2.70;99.90
16198;DHT22;8206;51.440;6.914;2024-01-16T13:12:45;2.70;99.90
16198;DHT22;8206;51.440;6.914;2024-01-16T13:15:11;2.70;99.90
16198;DHT22;8206;51.440;6.914;2024-01-16T13:17:42;2.70;99.90
16198;DHT22;8206;51.440;6.914;2024-01-16T13:20:09;2.60;99.90
16198;DHT22;8206;51.440;6.914;2024-01-16T13:22:38;2.60;99.90
16198;DHT22;8206;51.440;6.914;2024-01-16T13:25:05;2.60;99.90
16198;DHT22;8206;51.440;6.914;2024-01-16T13:27:32;2.60;99.90
16198;DHT22;8206;51.440;6.914;2024-01-16T13:30:00;2.60;99.90
16198;DHT22;8206;51.440;6.914;2024-01-16T13:32:27;2.60;99.90
16198;DHT22;8206;51.440;6.914;2024-01-16T13:34:53;2.50;99.90
16198;DHT22;8206;51.440;6.914;2024-01-16T13:37:21;2.60;99.90
16198;DHT22;8206;51.440;6.914;2024-01-16T13:39:48;2.70;99.90
16198;DHT22;8206;51.440;6.914;2024-01-16T13:42:15;2.60;99.90
16198;DHT22;8206;51.440;6.914;2024-01-16T13:44:44;2.70;99.90
16198;DHT22;8206;51.440;6.914;2024-01-16T13:47:13;2.80;99.90
16198;DHT22;8206;51.440;6.914;2024-01-16T13:49:40;3.00;99.90
16198;DHT22;8206;51.440;6.914;2024-01-16T13:52:07;3.00;99.90
16198;DHT22;8206;51.440;6.914;2024-01-16T13:54:36;2.90;99.90
16198;DHT22;8206;51.440;6.914;2024-01-16T13:57:04;2.80;99.90
16198;DHT22;8206;51.440;6.914;2024-01-16T13:59:31;2.80;99.90
16198;DHT22;8206;51.440;6.914;2024-01-16T14:01:57;2.70;99.90
16198;DHT22;8206;51.440;6.914;2024-01-16T14:04:25;2.60;99.90
16198;DHT22;8206;51.440;6.914;2024-01-16T14:06:52;2.50;99.90
16198;DHT22;8206;51.440;6.914;2024-01-16T14:09:19;2.50;99.90
16198;DHT22;8206;51.440;6.914;2024-01-16T14:11:45;2.50;99.90
16198;DHT22;8206;51.440;6.914;2024-01-16T14:14:12;2.50;99.90
16198;DHT22;8206;51.440;6.914;2024-01-16T14:16:39;2.50;99.90
16198;DHT22;8206;51.440;6.914;2024-01-16T14:19:05;2.50;99.90
16198;DHT22;8206;51.440;6.914;2024-01-16T14:21:33;2.50;99.90
16198;DHT22;8206;51.440;6.914;2024-01-16T14:24:00;2.40;99.90
16198;DHT22;8206;51.440;6.914;2024-01-16T14:26:27;2.30;99.90
16198;DHT22;8206;51.440;6.914;2024-01-16T14:28:54;2.30;99.90
16198;DHT22;8206;51.440;6.914;2024-01-16T14:31:20;2.20;99.90
16198;DHT22;8206;51.440;6.914;2024-01-16T14:33:47;2.10;99.90
16198;DHT22;8206;51.440;6.914;2024-01-16T14:36:14;2.10;99.90
16198;DHT22;8206;51.440;6.914;2024-01-16T14:38:42;2.10;99.90
16198;DHT22;8206;51.440;6.914;2024-01-16T14:41:08;2.00;99.90
16198;DHT22;8206;51.440;6.914;2024-01-16T14:43:35;1.90;99.90
16198;DHT22;8206;51.440;6.914;2024-01-16T14:46:02;1.80;99.90
16198;DHT22;8206;51.440;6.914;2024-01-16T14:48:29;1.70;99.90
16198;DHT22;8206;51.440;6.914;2024-01-16T14:50:56;1.50;99.90
16198;DHT22;8206;51.440;6.914;2024-01-16T14:53:22;1.50;99.90
16198;DHT22;8206;51.440;6.914;2024-01-16T14:55:51;1.50;99.90
16198;DHT22;8206;51.440;6.914;2024-01-16T14:58:19;1.40;99.90
16198;DHT22;8206;51.440;6.914;2024-01-16T15:00:48;1.30;99.90
16198;DHT22;8206;51.440;6.914;2024-01-16T15:03:15;1.20;99.90
16198;DHT22;8206;51.440;6.914;2024-01-16T15:05:46;1.10;99.90
16198;DHT22;8206;51.440;6.914;2024-01-16T15:08:13;1.00;99.90
16198;DHT22;8206;51.440;6.914;2024-01-16T15:10:40;1.00;99.90
16198;DHT22;8206;51.440;6.914;2024-01-16T15:13:08;0.90;99.90
16198;DHT22;8206;51.440;6.914;2024-01-16T15:15:35;0.90;99.90
16198;DHT22;8206;51.440;6.914;2024-01-16T15:18:02;1.00;99.90
16198;DHT22;8206;51.440;6.914;2024-01-16T15:20:29;1.00;99.90
16198;DHT22;8206;51.440;6.914;2024-01-16T15:22:56;1.00;99.90
16198;DHT22;8206;51.440;6.914;2024-01-16T15:25:23;1.00;99.90
16198;DHT22;8206;51.440;6.914;2024-01-16T15:27:51;0.90;99.90
16198;DHT22;8206;51.440;6.914;2024-01-16T15:30:20;0.80;99.90
16198;DHT22;8206;51.440;6.914;2024-01-16T15:32:48;0.60;99.90
16198;DHT22;8206;51.440;6.914;2024-01-16T15:35:15;0.50;99.90
16198;DHT22;8206;51.440;6.914;2024-01-16T15:37:41;0.40;99.90
16198;DHT22;8206;51.440;6.914;2024-01-16T15:40:10;0.40;99.90
16198;DHT22;8206;51.440;6.914;2024-01-16T15:42:38;0.30;99.90
16198;DHT22;8206;51.440;6.914;2024-01-16T15:45:05;0.20;99.90
16198;DHT22;8206;51.440;6.914;2024-01-16T15:47:34;0.10;99.90
16198;DHT22;8206;51.440;6.914;2024-01-16T15:50:02;0.00;99.90
16198;DHT22;8206;51.440;6.914;2024-01-16T15:52:30;-0.10;99.90
16198;DHT22;8206;51.440;6.914;2024-01-16T15:54:56;-0.20;99.90
16198;DHT22;8206;51.440;6.914;2024-01-16T15:57:23;-0.30;99.90
16198;DHT22;8206;51.440;6.914;2024-01-16T15:59:50;-0.40;99.90
16198;DHT22;8206;51.440;6.914;2024-01-16T16:02:17;-0.40;99.90
16198;DHT22;8206;51.440;6.914;2024-01-16T16:04:45;-0.50;99.90
16198;DHT22;8206;51.440;6.914;2024-01-16T16:07:12;-0.60;99.90
16198;DHT22;8206;51.440;6.914;2024-01-16T16:09:39;-0.70;99.90